< < Back
Terminal Aerodrome Forecast


Current Version              Previous Versions:   1  2  3  4  5  6  7  8  9  

Terminal Aerodrome Forecast

586
FTUS42 KFFC 240343 AAD
TAFATL
TAF AMD
KATL 240343Z 2404/2506 20010KT 6SM BR BKN015
     FM240500 22010KT 3SM BR OVC004
     FM241500 24012G19KT P6SM BKN015 OVC030
     FM241700 25012G25KT P6SM SCT035
     FM242300 27009KT P6SM SCT160=

Latest METAR

327
SAUS70 KWBC 240800 RRD
MTRATL
METAR KATL 240752Z 21007KT 10SM FEW009 BKN018 OVC025 16/14 A2977 RMK AO2
SLP077 T01610139 $


USA.gov is the U.S. government's official web portal to all federal, state and local government web resources and services.